sensor_id;sensor_type;location;lat;lon;timestamp;temperature;humidity
62575;DHT22;53112;45.602;11.904;2022-08-20T00:00:30;23.30;68.50
62575;DHT22;53112;45.602;11.904;2022-08-20T00:02:59;23.40;67.90
62575;DHT22;53112;45.602;11.904;2022-08-20T00:05:32;23.40;67.60
62575;DHT22;53112;45.602;11.904;2022-08-20T00:07:59;23.40;67.70
62575;DHT22;53112;45.602;11.904;2022-08-20T00:10:27;23.40;67.80
62575;DHT22;53112;45.602;11.904;2022-08-20T00:12:54;23.40;67.50
62575;DHT22;53112;45.602;11.904;2022-08-20T00:15:24;23.40;67.30
62575;DHT22;53112;45.602;11.904;2022-08-20T00:17:51;23.10;68.60
62575;DHT22;53112;45.602;11.904;2022-08-20T00:20:20;23.20;67.90
62575;DHT22;53112;45.602;11.904;2022-08-20T00:22:47;23.20;67.70
62575;DHT22;53112;45.602;11.904;2022-08-20T00:25:14;23.20;67.70
62575;DHT22;53112;45.602;11.904;2022-08-20T00:27:40;23.20;67.40
62575;DHT22;53112;45.602;11.904;2022-08-20T00:30:10;23.20;67.70
62575;DHT22;53112;45.602;11.904;2022-08-20T00:32:49;23.20;67.60
62575;DHT22;53112;45.602;11.904;2022-08-20T00:35:17;23.20;67.50
62575;DHT22;53112;45.602;11.904;2022-08-20T00:37:43;23.20;67.30
62575;DHT22;53112;45.602;11.904;2022-08-20T00:40:14;23.10;67.60
62575;DHT22;53112;45.602;11.904;2022-08-20T00:42:47;23.20;67.60
62575;DHT22;53112;45.602;11.904;2022-08-20T00:45:14;23.10;67.90
62575;DHT22;53112;45.602;11.904;2022-08-20T00:47:41;23.10;68.00
62575;DHT22;53112;45.602;11.904;2022-08-20T00:50:14;23.10;68.10
62575;DHT22;53112;45.602;11.904;2022-08-20T00:52:44;23.10;68.00
62575;DHT22;53112;45.602;11.904;2022-08-20T00:55:13;23.10;67.70
62575;DHT22;53112;45.602;11.904;2022-08-20T00:57:47;23.10;67.90
62575;DHT22;53112;45.602;11.904;2022-08-20T01:00:27;22.80;69.80
62575;DHT22;53112;45.602;11.904;2022-08-20T01:02:54;22.70;69.20
62575;DHT22;53112;45.602;11.904;2022-08-20T01:05:21;22.70;69.20
62575;DHT22;53112;45.602;11.904;2022-08-20T01:07:50;22.70;69.50
62575;DHT22;53112;45.602;11.904;2022-08-20T01:10:22;22.40;71.00
62575;DHT22;53112;45.602;11.904;2022-08-20T01:12:49;22.30;70.80
62575;DHT22;53112;45.602;11.904;2022-08-20T01:15:20;22.40;71.30
62575;DHT22;53112;45.602;11.904;2022-08-20T01:17:54;22.30;71.50
62575;DHT22;53112;45.602;11.904;2022-08-20T01:20:25;22.60;69.90
62575;DHT22;53112;45.602;11.904;2022-08-20T01:26:04;22.30;71.70
62575;DHT22;53112;45.602;11.904;2022-08-20T01:28:36;22.60;70.20
62575;DHT22;53112;45.602;11.904;2022-08-20T01:31:05;22.60;70.00
62575;DHT22;53112;45.602;11.904;2022-08-20T01:33:31;22.70;69.40
62575;DHT22;53112;45.602;11.904;2022-08-20T01:35:57;22.50;70.40
62575;DHT22;53112;45.602;11.904;2022-08-20T01:38:23;22.60;69.50
62575;DHT22;53112;45.602;11.904;2022-08-20T01:43:34;22.60;69.40
62575;DHT22;53112;45.602;11.904;2022-08-20T01:46:00;22.70;69.20
62575;DHT22;53112;45.602;11.904;2022-08-20T01:48:27;22.80;68.80
62575;DHT22;53112;45.602;11.904;2022-08-20T01:51:05;22.90;68.30
62575;DHT22;53112;45.602;11.904;2022-08-20T01:53:37;22.90;68.20
62575;DHT22;53112;45.602;11.904;2022-08-20T01:56:09;22.90;68.40
62575;DHT22;53112;45.602;11.904;2022-08-20T01:58:39;22.60;68.80
62575;DHT22;53112;45.602;11.904;2022-08-20T02:01:05;22.60;68.80
62575;DHT22;53112;45.602;11.904;2022-08-20T02:03:31;22.70;68.80
62575;DHT22;53112;45.602;11.904;2022-08-20T02:06:00;22.30;70.20
62575;DHT22;53112;45.602;11.904;2022-08-20T02:08:28;22.30;70.10
62575;DHT22;53112;45.602;11.904;2022-08-20T02:10:57;22.20;70.50
62575;DHT22;53112;45.602;11.904;2022-08-20T02:13:23;22.20;70.90
62575;DHT22;53112;45.602;11.904;2022-08-20T02:15:49;22.10;71.40
62575;DHT22;53112;45.602;11.904;2022-08-20T02:18:15;22.30;70.80
62575;DHT22;53112;45.602;11.904;2022-08-20T02:20:42;22.60;69.50
62575;DHT22;53112;45.602;11.904;2022-08-20T02:23:09;22.70;69.00
62575;DHT22;53112;45.602;11.904;2022-08-20T02:25:37;22.80;68.50
62575;DHT22;53112;45.602;11.904;2022-08-20T02:28:12;22.90;68.20
62575;DHT22;53112;45.602;11.904;2022-08-20T02:30:42;22.80;67.90
62575;DHT22;53112;45.602;11.904;2022-08-20T02:33:12;22.80;68.00
62575;DHT22;53112;45.602;11.904;2022-08-20T02:35:40;22.80;67.90
62575;DHT22;53112;45.602;11.904;2022-08-20T02:38:09;22.80;67.70
62575;DHT22;53112;45.602;11.904;2022-08-20T02:40:35;22.70;67.90
62575;DHT22;53112;45.602;11.904;2022-08-20T02:43:03;22.70;67.70
62575;DHT22;53112;45.602;11.904;2022-08-20T02:45:31;22.70;67.90
62575;DHT22;53112;45.602;11.904;2022-08-20T02:48:02;22.60;68.00
62575;DHT22;53112;45.602;11.904;2022-08-20T02:50:29;22.60;67.90
62575;DHT22;53112;45.602;11.904;2022-08-20T02:52:56;22.60;67.90
62575;DHT22;53112;45.602;11.904;2022-08-20T02:55:22;22.40;68.60
62575;DHT22;53112;45.602;11.904;2022-08-20T02:57:49;22.40;69.30
62575;DHT22;53112;45.602;11.904;2022-08-20T03:00:21;22.30;69.30
62575;DHT22;53112;45.602;11.904;2022-08-20T03:02:47;22.10;70.00
62575;DHT22;53112;45.602;11.904;2022-08-20T03:05:13;22.10;69.70
62575;DHT22;53112;45.602;11.904;2022-08-20T03:07:44;22.20;69.20
62575;DHT22;53112;45.602;11.904;2022-08-20T03:10:12;21.90;70.90
62575;DHT22;53112;45.602;11.904;2022-08-20T03:12:40;21.60;71.80
62575;DHT22;53112;45.602;11.904;2022-08-20T03:15:08;21.60;72.50
62575;DHT22;53112;45.602;11.904;2022-08-20T03:17:36;21.60;72.20
62575;DHT22;53112;45.602;11.904;2022-08-20T03:20:05;21.60;72.10
62575;DHT22;53112;45.602;11.904;2022-08-20T03:22:32;21.60;72.30
62575;DHT22;53112;45.602;11.904;2022-08-20T03:24:58;21.60;72.40
62575;DHT22;53112;45.602;11.904;2022-08-20T03:27:24;21.70;72.40
62575;DHT22;53112;45.602;11.904;2022-08-20T03:29:50;21.90;71.10
62575;DHT22;53112;45.602;11.904;2022-08-20T03:32:17;22.10;70.20
62575;DHT22;53112;45.602;11.904;2022-08-20T03:34:43;22.10;69.60
62575;DHT22;53112;45.602;11.904;2022-08-20T03:37:09;22.20;69.30
62575;DHT22;53112;45.602;11.904;2022-08-20T03:39:37;22.30;68.80
62575;DHT22;53112;45.602;11.904;2022-08-20T03:42:04;22.40;68.40
62575;DHT22;53112;45.602;11.904;2022-08-20T03:44:30;22.40;68.00
62575;DHT22;53112;45.602;11.904;2022-08-20T03:46:56;22.20;68.90
62575;DHT22;53112;45.602;11.904;2022-08-20T03:49:23;21.90;70.50
62575;DHT22;53112;45.602;11.904;2022-08-20T03:51:50;21.80;71.20
62575;DHT22;53112;45.602;11.904;2022-08-20T03:54:16;21.80;71.20
62575;DHT22;53112;45.602;11.904;2022-08-20T03:56:42;21.70;72.00
62575;DHT22;53112;45.602;11.904;2022-08-20T03:59:08;21.70;71.20
62575;DHT22;53112;45.602;11.904;2022-08-20T04:01:34;21.90;70.60
62575;DHT22;53112;45.602;11.904;2022-08-20T04:04:00;22.10;70.00
62575;DHT22;53112;45.602;11.904;2022-08-20T04:06:26;22.20;69.50
62575;DHT22;53112;45.602;11.904;2022-08-20T04:08:55;22.00;70.60
62575;DHT22;53112;45.602;11.904;2022-08-20T04:11:21;21.90;70.50
62575;DHT22;53112;45.602;11.904;2022-08-20T04:13:48;21.60;72.70
62575;DHT22;53112;45.602;11.904;2022-08-20T04:16:14;21.50;73.50
62575;DHT22;53112;45.602;11.904;2022-08-20T04:18:40;21.40;73.50
62575;DHT22;53112;45.602;11.904;2022-08-20T04:21:06;21.70;72.50
62575;DHT22;53112;45.602;11.904;2022-08-20T04:23:32;21.80;71.50
62575;DHT22;53112;45.602;11.904;2022-08-20T04:25:58;21.90;71.40
62575;DHT22;53112;45.602;11.904;2022-08-20T04:28:25;21.80;71.50
62575;DHT22;53112;45.602;11.904;2022-08-20T04:31:00;21.90;71.40
62575;DHT22;53112;45.602;11.904;2022-08-20T04:33:28;22.00;71.00
62575;DHT22;53112;45.602;11.904;2022-08-20T04:35:57;22.00;71.00
62575;DHT22;53112;45.602;11.904;2022-08-20T04:38:28;22.10;70.20
62575;DHT22;53112;45.602;11.904;2022-08-20T04:40:55;22.30;69.70
62575;DHT22;53112;45.602;11.904;2022-08-20T04:43:32;22.20;70.10
62575;DHT22;53112;45.602;11.904;2022-08-20T04:46:01;22.20;70.10
62575;DHT22;53112;45.602;11.904;2022-08-20T04:48:31;22.30;69.90
62575;DHT22;53112;45.602;11.904;2022-08-20T04:50:58;22.50;69.20
62575;DHT22;53112;45.602;11.904;2022-08-20T04:53:26;22.60;68.80
62575;DHT22;53112;45.602;11.904;2022-08-20T04:55:58;22.90;68.10
62575;DHT22;53112;45.602;11.904;2022-08-20T04:58:34;23.10;67.30
62575;DHT22;53112;45.602;11.904;2022-08-20T05:01:04;23.20;67.10
62575;DHT22;53112;45.602;11.904;2022-08-20T05:03:31;23.20;66.70
62575;DHT22;53112;45.602;11.904;2022-08-20T05:05:57;23.20;66.70
62575;DHT22;53112;45.602;11.904;2022-08-20T05:08:24;23.10;67.10
62575;DHT22;53112;45.602;11.904;2022-08-20T05:10:51;23.30;66.90
62575;DHT22;53112;45.602;11.904;2022-08-20T05:13:18;23.40;66.90
62575;DHT22;53112;45.602;11.904;2022-08-20T05:15:44;23.20;67.20
62575;DHT22;53112;45.602;11.904;2022-08-20T05:18:11;23.40;67.40
62575;DHT22;53112;45.602;11.904;2022-08-20T05:20:40;23.90;66.00
62575;DHT22;53112;45.602;11.904;2022-08-20T05:23:11;24.30;65.30
62575;DHT22;53112;45.602;11.904;2022-08-20T05:25:38;24.60;64.60
62575;DHT22;53112;45.602;11.904;2022-08-20T05:28:08;24.70;63.70
62575;DHT22;53112;45.602;11.904;2022-08-20T05:30:38;24.80;63.40
62575;DHT22;53112;45.602;11.904;2022-08-20T05:33:06;24.30;64.10
62575;DHT22;53112;45.602;11.904;2022-08-20T05:35:34;24.50;64.60
62575;DHT22;53112;45.602;11.904;2022-08-20T05:38:01;24.60;63.90
62575;DHT22;53112;45.602;11.904;2022-08-20T05:40:27;24.70;64.10
62575;DHT22;53112;45.602;11.904;2022-08-20T05:42:54;24.80;63.70
62575;DHT22;53112;45.602;11.904;2022-08-20T05:45:20;25.10;63.20
62575;DHT22;53112;45.602;11.904;2022-08-20T05:47:47;25.40;62.10
62575;DHT22;53112;45.602;11.904;2022-08-20T05:50:14;25.30;61.20
62575;DHT22;53112;45.602;11.904;2022-08-20T05:52:41;25.40;62.20
62575;DHT22;53112;45.602;11.904;2022-08-20T05:55:10;25.60;61.80
62575;DHT22;53112;45.602;11.904;2022-08-20T05:57:38;25.60;61.00
62575;DHT22;53112;45.602;11.904;2022-08-20T06:00:08;25.80;59.90
62575;DHT22;53112;45.602;11.904;2022-08-20T06:02:36;26.00;60.80
62575;DHT22;53112;45.602;11.904;2022-08-20T06:05:21;26.10;60.60
62575;DHT22;53112;45.602;11.904;2022-08-20T06:07:47;26.40;59.60
62575;DHT22;53112;45.602;11.904;2022-08-20T06:10:16;26.60;59.90
62575;DHT22;53112;45.602;11.904;2022-08-20T06:12:42;26.40;58.90
62575;DHT22;53112;45.602;11.904;2022-08-20T06:15:12;26.30;59.70
62575;DHT22;53112;45.602;11.904;2022-08-20T06:17:39;26.60;59.10
62575;DHT22;53112;45.602;11.904;2022-08-20T06:20:06;27.10;57.70
62575;DHT22;53112;45.602;11.904;2022-08-20T06:22:34;27.50;57.10
62575;DHT22;53112;45.602;11.904;2022-08-20T06:25:01;27.40;56.00
62575;DHT22;53112;45.602;11.904;2022-08-20T06:27:27;27.70;55.70
62575;DHT22;53112;45.602;11.904;2022-08-20T06:29:53;27.50;54.70
62575;DHT22;53112;45.602;11.904;2022-08-20T06:32:21;27.90;55.20
62575;DHT22;53112;45.602;11.904;2022-08-20T06:34:50;27.90;54.40
62575;DHT22;53112;45.602;11.904;2022-08-20T06:37:35;28.30;54.20
62575;DHT22;53112;45.602;11.904;2022-08-20T06:40:14;28.00;55.20
62575;DHT22;53112;45.602;11.904;2022-08-20T06:42:41;28.70;55.30
62575;DHT22;53112;45.602;11.904;2022-08-20T06:45:13;29.20;53.60
62575;DHT22;53112;45.602;11.904;2022-08-20T06:47:42;29.40;52.90
62575;DHT22;53112;45.602;11.904;2022-08-20T06:50:11;29.60;52.70
62575;DHT22;53112;45.602;11.904;2022-08-20T06:52:39;29.80;51.60
62575;DHT22;53112;45.602;11.904;2022-08-20T06:55:08;29.90;51.80
62575;DHT22;53112;45.602;11.904;2022-08-20T06:57:35;30.10;51.30
62575;DHT22;53112;45.602;11.904;2022-08-20T07:00:09;30.10;50.00
62575;DHT22;53112;45.602;11.904;2022-08-20T07:02:35;30.20;49.50
62575;DHT22;53112;45.602;11.904;2022-08-20T07:05:03;30.20;49.10
62575;DHT22;53112;45.602;11.904;2022-08-20T07:07:30;30.40;49.60
62575;DHT22;53112;45.602;11.904;2022-08-20T07:10:08;30.60;48.80
62575;DHT22;53112;45.602;11.904;2022-08-20T07:12:34;30.30;45.70
62575;DHT22;53112;45.602;11.904;2022-08-20T07:15:03;29.90;48.10
62575;DHT22;53112;45.602;11.904;2022-08-20T07:17:29;29.60;48.80
62575;DHT22;53112;45.602;11.904;2022-08-20T07:19:55;29.20;49.80
62575;DHT22;53112;45.602;11.904;2022-08-20T07:22:21;29.00;50.20
62575;DHT22;53112;45.602;11.904;2022-08-20T07:24:47;28.80;52.00
62575;DHT22;53112;45.602;11.904;2022-08-20T07:27:14;29.10;52.50
62575;DHT22;53112;45.602;11.904;2022-08-20T07:29:40;29.30;52.20
62575;DHT22;53112;45.602;11.904;2022-08-20T07:32:24;29.50;52.10
62575;DHT22;53112;45.602;11.904;2022-08-20T07:34:59;29.70;51.60
62575;DHT22;53112;45.602;11.904;2022-08-20T07:37:25;29.90;50.80
62575;DHT22;53112;45.602;11.904;2022-08-20T07:39:52;29.60;51.00
62575;DHT22;53112;45.602;11.904;2022-08-20T07:42:18;29.90;50.80
62575;DHT22;53112;45.602;11.904;2022-08-20T07:44:44;30.10;50.40
62575;DHT22;53112;45.602;11.904;2022-08-20T07:47:10;30.00;48.20
62575;DHT22;53112;45.602;11.904;2022-08-20T07:49:39;29.50;49.90
62575;DHT22;53112;45.602;11.904;2022-08-20T07:52:06;29.30;49.60
62575;DHT22;53112;45.602;11.904;2022-08-20T07:54:31;29.40;49.20
62575;DHT22;53112;45.602;11.904;2022-08-20T07:57:01;29.30;47.80
62575;DHT22;53112;45.602;11.904;2022-08-20T07:59:29;29.60;47.60
62575;DHT22;53112;45.602;11.904;2022-08-20T08:01:55;30.20;46.80
62575;DHT22;53112;45.602;11.904;2022-08-20T08:04:21;30.30;46.10
62575;DHT22;53112;45.602;11.904;2022-08-20T08:06:49;30.60;45.80
62575;DHT22;53112;45.602;11.904;2022-08-20T08:09:16;30.40;46.30
62575;DHT22;53112;45.602;11.904;2022-08-20T08:11:46;30.50;45.70
62575;DHT22;53112;45.602;11.904;2022-08-20T08:14:19;30.10;45.60
62575;DHT22;53112;45.602;11.904;2022-08-20T08:16:48;30.30;46.50
62575;DHT22;53112;45.602;11.904;2022-08-20T08:19:16;31.10;45.20
62575;DHT22;53112;45.602;11.904;2022-08-20T08:21:42;31.20;44.70
62575;DHT22;53112;45.602;11.904;2022-08-20T08:24:10;31.30;43.50
62575;DHT22;53112;45.602;11.904;2022-08-20T08:26:36;31.30;44.40
62575;DHT22;53112;45.602;11.904;2022-08-20T08:29:02;31.50;43.80
62575;DHT22;53112;45.602;11.904;2022-08-20T08:31:33;32.30;42.20
62575;DHT22;53112;45.602;11.904;2022-08-20T08:33:59;32.70;42.10
62575;DHT22;53112;45.602;11.904;2022-08-20T08:36:25;32.60;42.10
62575;DHT22;53112;45.602;11.904;2022-08-20T08:38:52;33.40;41.90
62575;DHT22;53112;45.602;11.904;2022-08-20T08:41:25;34.40;40.40
62575;DHT22;53112;45.602;11.904;2022-08-20T08:44:01;34.90;38.80
62575;DHT22;53112;45.602;11.904;2022-08-20T08:46:31;35.60;37.60
62575;DHT22;53112;45.602;11.904;2022-08-20T08:49:00;36.00;37.80
62575;DHT22;53112;45.602;11.904;2022-08-20T08:51:46;36.40;37.90
62575;DHT22;53112;45.602;11.904;2022-08-20T08:54:16;36.80;36.80
62575;DHT22;53112;45.602;11.904;2022-08-20T08:56:44;37.30;35.60
62575;DHT22;53112;45.602;11.904;2022-08-20T08:59:10;37.50;34.30
62575;DHT22;53112;45.602;11.904;2022-08-20T09:01:43;37.80;34.50
62575;DHT22;53112;45.602;11.904;2022-08-20T09:04:15;38.30;32.90
62575;DHT22;53112;45.602;11.904;2022-08-20T09:06:42;38.30;31.60
62575;DHT22;53112;45.602;11.904;2022-08-20T09:09:26;38.80;32.40
62575;DHT22;53112;45.602;11.904;2022-08-20T09:11:55;39.20;31.10
62575;DHT22;53112;45.602;11.904;2022-08-20T09:14:26;39.50;30.20
62575;DHT22;53112;45.602;11.904;2022-08-20T09:16:52;39.40;30.50
62575;DHT22;53112;45.602;11.904;2022-08-20T09:19:18;39.70;30.40
62575;DHT22;53112;45.602;11.904;2022-08-20T09:21:44;40.00;29.70
62575;DHT22;53112;45.602;11.904;2022-08-20T09:24:10;40.10;29.70
62575;DHT22;53112;45.602;11.904;2022-08-20T09:26:36;38.80;31.20
62575;DHT22;53112;45.602;11.904;2022-08-20T09:29:02;38.60;31.60
62575;DHT22;53112;45.602;11.904;2022-08-20T09:31:28;39.10;30.60
62575;DHT22;53112;45.602;11.904;2022-08-20T09:33:54;40.30;28.90
62575;DHT22;53112;45.602;11.904;2022-08-20T09:36:20;40.60;29.20
62575;DHT22;53112;45.602;11.904;2022-08-20T09:38:46;41.40;28.60
62575;DHT22;53112;45.602;11.904;2022-08-20T09:41:13;42.00;27.40
62575;DHT22;53112;45.602;11.904;2022-08-20T09:43:39;41.50;28.00
62575;DHT22;53112;45.602;11.904;2022-08-20T09:46:05;40.60;28.50
62575;DHT22;53112;45.602;11.904;2022-08-20T09:48:31;40.60;27.30
62575;DHT22;53112;45.602;11.904;2022-08-20T09:50:57;40.70;26.20
62575;DHT22;53112;45.602;11.904;2022-08-20T09:53:23;40.90;26.70
62575;DHT22;53112;45.602;11.904;2022-08-20T09:55:52;41.10;26.50
62575;DHT22;53112;45.602;11.904;2022-08-20T09:58:33;41.20;27.60
62575;DHT22;53112;45.602;11.904;2022-08-20T10:01:08;41.20;23.90
62575;DHT22;53112;45.602;11.904;2022-08-20T10:03:35;41.50;25.20
62575;DHT22;53112;45.602;11.904;2022-08-20T10:06:01;42.20;25.20
62575;DHT22;53112;45.602;11.904;2022-08-20T10:08:28;42.70;25.90
62575;DHT22;53112;45.602;11.904;2022-08-20T10:14:16;42.50;24.90
62575;DHT22;53112;45.602;11.904;2022-08-20T10:16:41;42.80;26.10
62575;DHT22;53112;45.602;11.904;2022-08-20T10:19:08;42.70;25.40
62575;DHT22;53112;45.602;11.904;2022-08-20T10:21:34;42.30;26.20
62575;DHT22;53112;45.602;11.904;2022-08-20T10:23:59;42.80;25.20
62575;DHT22;53112;45.602;11.904;2022-08-20T10:26:26;43.40;25.20
62575;DHT22;53112;45.602;11.904;2022-08-20T10:28:52;44.20;24.50
62575;DHT22;53112;45.602;11.904;2022-08-20T10:31:17;45.30;23.80
62575;DHT22;53112;45.602;11.904;2022-08-20T10:33:43;46.10;21.80
62575;DHT22;53112;45.602;11.904;2022-08-20T10:36:14;46.30;23.00
62575;DHT22;53112;45.602;11.904;2022-08-20T10:38:41;46.40;22.70
62575;DHT22;53112;45.602;11.904;2022-08-20T10:41:08;47.50;22.50
62575;DHT22;53112;45.602;11.904;2022-08-20T10:43:34;47.40;20.70
62575;DHT22;53112;45.602;11.904;2022-08-20T10:46:00;46.80;20.90
62575;DHT22;53112;45.602;11.904;2022-08-20T10:48:26;46.60;21.70
62575;DHT22;53112;45.602;11.904;2022-08-20T10:50:52;47.90;21.20
62575;DHT22;53112;45.602;11.904;2022-08-20T10:53:18;48.00;20.60
62575;DHT22;53112;45.602;11.904;2022-08-20T10:55:45;48.70;20.50
62575;DHT22;53112;45.602;11.904;2022-08-20T10:58:11;48.50;20.90
62575;DHT22;53112;45.602;11.904;2022-08-20T11:00:38;48.50;21.10
62575;DHT22;53112;45.602;11.904;2022-08-20T11:03:04;49.10;19.70
62575;DHT22;53112;45.602;11.904;2022-08-20T11:05:30;49.50;19.80
62575;DHT22;53112;45.602;11.904;2022-08-20T11:07:56;49.10;19.90
62575;DHT22;53112;45.602;11.904;2022-08-20T11:10:26;47.70;20.00
62575;DHT22;53112;45.602;11.904;2022-08-20T11:12:52;48.30;20.70
62575;DHT22;53112;45.602;11.904;2022-08-20T11:15:18;49.10;20.00
62575;DHT22;53112;45.602;11.904;2022-08-20T11:17:45;48.00;18.50
62575;DHT22;53112;45.602;11.904;2022-08-20T11:20:13;47.20;19.40
62575;DHT22;53112;45.602;11.904;2022-08-20T11:22:39;49.20;19.50
62575;DHT22;53112;45.602;11.904;2022-08-20T11:25:06;48.90;19.30
62575;DHT22;53112;45.602;11.904;2022-08-20T11:27:38;48.40;19.20
62575;DHT22;53112;45.602;11.904;2022-08-20T11:30:07;48.80;18.50
62575;DHT22;53112;45.602;11.904;2022-08-20T11:32:33;49.00;18.60
62575;DHT22;53112;45.602;11.904;2022-08-20T11:34:59;49.70;18.50
62575;DHT22;53112;45.602;11.904;2022-08-20T11:37:26;49.80;17.20
62575;DHT22;53112;45.602;11.904;2022-08-20T11:39:52;48.40;18.20
62575;DHT22;53112;45.602;11.904;2022-08-20T11:42:18;48.10;19.00
62575;DHT22;53112;45.602;11.904;2022-08-20T11:44:44;50.00;18.30
62575;DHT22;53112;45.602;11.904;2022-08-20T11:47:23;48.20;18.70
62575;DHT22;53112;45.602;11.904;2022-08-20T11:50:04;48.50;19.00
62575;DHT22;53112;45.602;11.904;2022-08-20T11:52:31;48.30;18.30
62575;DHT22;53112;45.602;11.904;2022-08-20T11:54:57;47.00;19.40
62575;DHT22;53112;45.602;11.904;2022-08-20T11:57:27;44.80;21.20
62575;DHT22;53112;45.602;11.904;2022-08-20T11:59:55;45.10;21.00
62575;DHT22;53112;45.602;11.904;2022-08-20T12:02:21;44.30;21.10
62575;DHT22;53112;45.602;11.904;2022-08-20T12:04:47;44.30;21.50
62575;DHT22;53112;45.602;11.904;2022-08-20T12:07:18;46.80;20.30
62575;DHT22;53112;45.602;11.904;2022-08-20T12:09:44;48.10;19.10
62575;DHT22;53112;45.602;11.904;2022-08-20T12:12:11;46.80;19.60
62575;DHT22;53112;45.602;11.904;2022-08-20T12:14:37;46.70;19.00
62575;DHT22;53112;45.602;11.904;2022-08-20T12:17:12;45.60;20.30
62575;DHT22;53112;45.602;11.904;2022-08-20T12:19:40;45.60;19.10
62575;DHT22;53112;45.602;11.904;2022-08-20T12:22:07;46.40;19.60
62575;DHT22;53112;45.602;11.904;2022-08-20T12:24:34;48.60;17.80
62575;DHT22;53112;45.602;11.904;2022-08-20T12:27:29;49.80;17.30
62575;DHT22;53112;45.602;11.904;2022-08-20T12:29:57;50.60;16.00
62575;DHT22;53112;45.602;11.904;2022-08-20T12:32:25;50.40;15.70
62575;DHT22;53112;45.602;11.904;2022-08-20T12:34:52;51.20;16.40
62575;DHT22;53112;45.602;11.904;2022-08-20T12:37:22;51.80;16.20
62575;DHT22;53112;45.602;11.904;2022-08-20T12:39:51;51.30;17.20
62575;DHT22;53112;45.602;11.904;2022-08-20T12:42:19;51.90;17.40
62575;DHT22;53112;45.602;11.904;2022-08-20T12:44:45;52.30;16.60
62575;DHT22;53112;45.602;11.904;2022-08-20T12:47:16;51.70;16.90
62575;DHT22;53112;45.602;11.904;2022-08-20T12:49:47;51.60;15.90
62575;DHT22;53112;45.602;11.904;2022-08-20T12:52:15;49.90;16.70
62575;DHT22;53112;45.602;11.904;2022-08-20T12:54:42;50.90;17.30
62575;DHT22;53112;45.602;11.904;2022-08-20T12:57:37;52.10;16.70
62575;DHT22;53112;45.602;11.904;2022-08-20T13:00:09;52.50;15.90
62575;DHT22;53112;45.602;11.904;2022-08-20T13:02:36;50.30;16.30
62575;DHT22;53112;45.602;11.904;2022-08-20T13:05:04;48.50;17.30
62575;DHT22;53112;45.602;11.904;2022-08-20T13:07:31;47.70;17.50
62575;DHT22;53112;45.602;11.904;2022-08-20T13:09:58;47.10;18.30
62575;DHT22;53112;45.602;11.904;2022-08-20T13:12:24;48.20;17.90
62575;DHT22;53112;45.602;11.904;2022-08-20T13:14:50;47.00;18.10
62575;DHT22;53112;45.602;11.904;2022-08-20T13:17:17;48.10;18.00
62575;DHT22;53112;45.602;11.904;2022-08-20T13:19:44;47.80;18.10
62575;DHT22;53112;45.602;11.904;2022-08-20T13:22:13;48.50;17.90
62575;DHT22;53112;45.602;11.904;2022-08-20T13:24:40;49.50;16.90
62575;DHT22;53112;45.602;11.904;2022-08-20T13:27:15;48.30;17.90
62575;DHT22;53112;45.602;11.904;2022-08-20T13:29:50;47.00;18.40
62575;DHT22;53112;45.602;11.904;2022-08-20T13:32:16;47.30;18.20
62575;DHT22;53112;45.602;11.904;2022-08-20T13:34:43;47.50;18.50
62575;DHT22;53112;45.602;11.904;2022-08-20T13:37:19;47.90;18.60
62575;DHT22;53112;45.602;11.904;2022-08-20T13:39:45;47.10;18.10
62575;DHT22;53112;45.602;11.904;2022-08-20T13:42:12;46.90;18.30
62575;DHT22;53112;45.602;11.904;2022-08-20T13:44:39;46.60;18.80
62575;DHT22;53112;45.602;11.904;2022-08-20T13:50:05;44.00;19.10
62575;DHT22;53112;45.602;11.904;2022-08-20T13:52:33;42.70;20.30
62575;DHT22;53112;45.602;11.904;2022-08-20T13:54:59;42.60;20.70
62575;DHT22;53112;45.602;11.904;2022-08-20T13:57:25;42.40;21.60
62575;DHT22;53112;45.602;11.904;2022-08-20T13:59:54;42.20;21.40
62575;DHT22;53112;45.602;11.904;2022-08-20T14:02:22;42.10;21.60
62575;DHT22;53112;45.602;11.904;2022-08-20T14:04:49;41.30;22.80
62575;DHT22;53112;45.602;11.904;2022-08-20T14:07:23;41.50;22.60
62575;DHT22;53112;45.602;11.904;2022-08-20T14:09:56;40.70;23.40
62575;DHT22;53112;45.602;11.904;2022-08-20T14:12:24;40.20;23.90
62575;DHT22;53112;45.602;11.904;2022-08-20T14:14:51;40.40;24.20
62575;DHT22;53112;45.602;11.904;2022-08-20T14:17:31;39.60;25.10
62575;DHT22;53112;45.602;11.904;2022-08-20T14:20:01;39.40;25.40
62575;DHT22;53112;45.602;11.904;2022-08-20T14:22:28;40.10;24.50
62575;DHT22;53112;45.602;11.904;2022-08-20T14:24:53;41.60;23.40
62575;DHT22;53112;45.602;11.904;2022-08-20T14:27:21;42.60;21.80
62575;DHT22;53112;45.602;11.904;2022-08-20T14:29:49;43.60;20.90
62575;DHT22;53112;45.602;11.904;2022-08-20T14:32:16;43.60;20.20
62575;DHT22;53112;45.602;11.904;2022-08-20T14:34:42;42.10;21.20
62575;DHT22;53112;45.602;11.904;2022-08-20T14:37:13;42.40;20.70
62575;DHT22;53112;45.602;11.904;2022-08-20T14:39:42;42.40;20.30
62575;DHT22;53112;45.602;11.904;2022-08-20T14:42:08;42.30;20.40
62575;DHT22;53112;45.602;11.904;2022-08-20T14:44:34;43.80;18.10
62575;DHT22;53112;45.602;11.904;2022-08-20T14:47:16;43.80;18.90
62575;DHT22;53112;45.602;11.904;2022-08-20T14:49:43;44.00;19.30
62575;DHT22;53112;45.602;11.904;2022-08-20T14:52:11;43.10;20.70
62575;DHT22;53112;45.602;11.904;2022-08-20T14:54:37;42.80;20.30
62575;DHT22;53112;45.602;11.904;2022-08-20T14:57:04;42.90;20.80
62575;DHT22;53112;45.602;11.904;2022-08-20T14:59:31;42.80;21.70
62575;DHT22;53112;45.602;11.904;2022-08-20T15:01:57;42.00;22.80
62575;DHT22;53112;45.602;11.904;2022-08-20T15:04:24;42.00;23.00
62575;DHT22;53112;45.602;11.904;2022-08-20T15:06:51;41.30;23.50
62575;DHT22;53112;45.602;11.904;2022-08-20T15:09:17;41.70;23.40
62575;DHT22;53112;45.602;11.904;2022-08-20T15:11:44;41.90;23.40
62575;DHT22;53112;45.602;11.904;2022-08-20T15:14:10;42.10;23.10
62575;DHT22;53112;45.602;11.904;2022-08-20T15:16:36;42.10;23.50
62575;DHT22;53112;45.602;11.904;2022-08-20T15:19:04;42.00;23.60
62575;DHT22;53112;45.602;11.904;2022-08-20T15:21:30;42.00;23.70
62575;DHT22;53112;45.602;11.904;2022-08-20T15:23:56;41.90;23.80
62575;DHT22;53112;45.602;11.904;2022-08-20T15:26:22;41.80;25.40
62575;DHT22;53112;45.602;11.904;2022-08-20T15:28:48;41.60;24.60
62575;DHT22;53112;45.602;11.904;2022-08-20T15:31:14;41.50;25.50
62575;DHT22;53112;45.602;11.904;2022-08-20T15:33:40;41.40;26.00